createdAt,value
2019-01-31T00:01:16.547Z,96241.05
2019-01-31T00:04:33.617Z,96238.86
2019-01-31T00:08:17.010Z,96238.15
2019-01-31T00:11:57.252Z,96239.58
2019-01-31T00:15:40.628Z,96244.20
2019-01-31T00:18:41.157Z,96241.20
2019-01-31T00:22:22.787Z,96244.37
2019-01-31T00:25:33.082Z,96243.40
2019-01-31T00:28:51.361Z,96239.23
2019-01-31T00:32:20.078Z,96234.97
2019-01-31T00:35:17.578Z,96232.96
2019-01-31T00:38:56.782Z,96233.09
2019-01-31T00:42:34.016Z,96233.29
2019-01-31T00:45:35.490Z,96235.64
2019-01-31T00:48:45.965Z,96235.62
2019-01-31T00:52:17.479Z,96235.47
2019-01-31T00:55:48.422Z,96235.52
2019-01-31T00:59:23.322Z,96232.17
2019-01-31T01:02:33.950Z,96235.59
2019-01-31T01:05:38.480Z,96233.19
2019-01-31T01:08:54.751Z,96239.19
2019-01-31T01:12:28.264Z,96240.50
2019-01-31T01:16:05.954Z,96247.70
2019-01-31T01:19:18.525Z,96247.62
2019-01-31T01:22:37.324Z,96252.52
2019-01-31T01:25:53.615Z,96256.13
2019-01-31T01:29:25.070Z,96256.05
2019-01-31T01:32:40.458Z,96257.75
2019-01-31T01:35:33.264Z,96252.88
2019-01-31T01:38:52.017Z,96251.41
2019-01-31T01:41:50.225Z,96251.96
2019-01-31T01:44:59.150Z,96252.67
2019-01-31T01:47:48.457Z,96257.09
2019-01-31T01:51:09.219Z,96259.69
2019-01-31T01:54:31.281Z,96257.38
2019-01-31T01:57:50.387Z,96249.56
2019-01-31T02:01:09.910Z,96247.07
2019-01-31T02:04:27.391Z,96245.79
2019-01-31T02:07:56.997Z,96246.72
2019-01-31T02:11:45.074Z,96243.61
2019-01-31T02:15:26.839Z,96243.44
2019-01-31T02:18:27.030Z,96236.80
2019-01-31T02:22:19.830Z,96232.52
2019-01-31T02:25:38.760Z,96226.09
2019-01-31T02:28:47.245Z,96226.09
2019-01-31T02:32:00.610Z,96221.07
2019-01-31T02:35:29.263Z,96218.56
2019-01-31T02:38:43.543Z,96219.53
2019-01-31T02:41:45.302Z,96219.70
2019-01-31T02:45:12.482Z,96217.56
2019-01-31T02:48:42.548Z,96214.55
2019-01-31T02:52:10.308Z,96212.58
2019-01-31T02:55:23.261Z,96206.87
2019-01-31T02:59:20.345Z,96206.80
2019-01-31T03:02:10.726Z,96208.26
2019-01-31T03:05:24.113Z,96213.50
2019-01-31T03:08:42.550Z,96211.81
2019-01-31T03:12:00.988Z,96211.75
2019-01-31T03:15:05.527Z,96206.81
2019-01-31T03:18:45.108Z,96203.84
2019-01-31T03:22:10.037Z,96200.87
2019-01-31T03:25:29.778Z,96202.55
2019-01-31T03:28:51.517Z,96202.22
2019-01-31T03:31:57.191Z,96203.52
2019-01-31T03:35:37.998Z,96200.08
2019-01-31T03:39:07.476Z,96206.74
2019-01-31T03:42:34.899Z,96217.11
2019-01-31T03:46:02.006Z,96213.11
2019-01-31T03:48:55.497Z,96208.63
2019-01-31T03:52:51.265Z,96206.90
2019-01-31T03:56:02.165Z,96198.47
2019-01-31T03:59:33.423Z,96204.36
2019-01-31T04:02:54.655Z,96207.97
2019-01-31T04:06:17.198Z,96206.17
2019-01-31T04:08:49.157Z,96209.20
2019-01-31T04:11:21.150Z,96207.64
2019-01-31T04:13:53.217Z,96205.48
2019-01-31T04:16:25.248Z,96205.63
2019-01-31T04:18:57.312Z,96209.89
2019-01-31T04:21:29.400Z,96208.52
2019-01-31T04:24:01.392Z,96209.47
2019-01-31T04:26:33.389Z,96200.25
2019-01-31T04:29:05.516Z,96209.68
2019-01-31T04:31:37.590Z,96204.39
2019-01-31T04:34:09.574Z,96210.30
2019-01-31T04:36:41.560Z,96210.62
2019-01-31T04:39:13.556Z,96209.66
2019-01-31T04:41:45.616Z,96211.98
2019-01-31T04:44:17.605Z,96205.85
2019-01-31T04:46:49.806Z,96209.80
2019-01-31T04:49:21.793Z,96209.96
2019-01-31T04:51:53.795Z,96214.58
2019-01-31T04:54:25.856Z,96212.41
2019-01-31T04:56:57.852Z,96213.75
2019-01-31T04:59:29.918Z,96207.83
2019-01-31T05:02:01.911Z,96205.70
2019-01-31T05:04:33.897Z,96208.31
2019-01-31T05:07:05.887Z,96208.70
2019-01-31T05:09:37.971Z,96212.05
2019-01-31T05:12:10.043Z,96210.73
2019-01-31T05:14:42.109Z,96206.20
2019-01-31T05:17:14.100Z,96205.22
2019-01-31T05:19:46.081Z,96202.95
2019-01-31T05:22:18.076Z,96206.08
2019-01-31T05:24:50.073Z,96206.94
2019-01-31T05:27:22.083Z,96206.75
2019-01-31T05:29:54.154Z,96210.67
2019-01-31T05:32:26.144Z,96202.84
2019-01-31T05:34:58.126Z,96208.82
2019-01-31T05:37:30.122Z,96202.71
2019-01-31T05:40:02.107Z,96203.41
2019-01-31T05:42:34.174Z,96198.49
2019-01-31T05:45:08.582Z,96200.84
2019-01-31T05:47:40.580Z,96208.55
2019-01-31T05:50:16.086Z,96207.52
2019-01-31T05:52:48.178Z,96206.17
2019-01-31T05:55:20.176Z,96212.33
2019-01-31T05:57:52.269Z,96207.91
2019-01-31T06:00:31.316Z,96207.20
2019-01-31T06:03:03.393Z,96213.89
2019-01-31T06:05:35.483Z,96208.94
2019-01-31T06:08:07.557Z,96205.72
2019-01-31T06:10:39.542Z,96202.25
2019-01-31T06:13:11.540Z,96207.59
2019-01-31T06:15:43.578Z,96203.92
2019-01-31T06:18:15.570Z,96202.97
2019-01-31T06:20:47.560Z,96206.74
2019-01-31T06:23:19.549Z,96201.91
2019-01-31T06:25:51.533Z,96202.97
2019-01-31T06:28:23.520Z,96200.58
2019-01-31T06:30:55.516Z,96202.23
2019-01-31T06:33:28.540Z,96201.79
2019-01-31T06:36:00.656Z,96199.80
2019-01-31T06:38:33.622Z,96198.45
2019-01-31T06:41:05.813Z,96194.02
2019-01-31T06:43:37.812Z,96197.97
2019-01-31T06:46:09.809Z,96196.78
2019-01-31T06:48:41.865Z,96194.75
2019-01-31T06:51:13.843Z,96195.83
2019-01-31T06:53:45.831Z,96199.75
2019-01-31T06:56:17.890Z,96203.71
2019-01-31T06:58:49.882Z,96198.30
2019-01-31T07:01:21.871Z,96200.40
2019-01-31T07:03:53.946Z,96202.31
2019-01-31T07:06:25.930Z,96209.72
2019-01-31T07:08:57.922Z,96208.83
2019-01-31T07:11:30.464Z,96205.34
2019-01-31T07:14:02.612Z,96197.78
2019-01-31T07:16:34.740Z,96194.98
2019-01-31T07:19:07.016Z,96194.85
2019-01-31T07:21:38.918Z,96191.43
2019-01-31T07:24:10.923Z,96180.65
2019-01-31T07:26:42.827Z,96184.08
2019-01-31T07:29:14.729Z,96177.55
2019-01-31T07:31:46.670Z,96170.62
2019-01-31T07:34:18.578Z,96171.44
2019-01-31T07:36:50.512Z,96160.36
2019-01-31T07:39:22.411Z,96161.34
2019-01-31T07:41:54.438Z,96164.23
2019-01-31T07:44:26.300Z,96168.95
2019-01-31T07:46:58.199Z,96171.05
2019-01-31T07:49:30.103Z,96167.93
2019-01-31T07:52:02.129Z,96159.64
2019-01-31T07:54:34.202Z,96158.58
2019-01-31T07:57:06.295Z,96162.59
2019-01-31T07:59:38.362Z,96166.16
2019-01-31T08:02:10.430Z,96163.59
2019-01-31T08:04:42.415Z,96165.52
2019-01-31T08:07:14.510Z,96165.52
2019-01-31T08:09:46.501Z,96157.66
2019-01-31T08:12:18.487Z,96150.70
2019-01-31T08:14:50.576Z,96149.86
2019-01-31T08:17:22.639Z,96145.01
2019-01-31T08:19:54.711Z,96149.52
2019-01-31T08:22:26.696Z,96139.68
2019-01-31T08:24:58.682Z,96135.34
2019-01-31T08:27:30.766Z,96138.98
2019-01-31T08:30:02.759Z,96140.38
2019-01-31T08:32:34.772Z,96147.34
2019-01-31T08:35:07.306Z,96149.36
2019-01-31T08:37:39.222Z,96151.77
2019-01-31T08:40:12.321Z,96153.43
2019-01-31T08:42:44.229Z,96155.67
2019-01-31T08:45:16.479Z,96160.19
2019-01-31T08:47:48.400Z,96156.66
2019-01-31T08:50:23.063Z,96150.44
2019-01-31T08:52:55.082Z,96143.70
2019-01-31T08:55:27.200Z,96141.51
2019-01-31T08:57:59.112Z,96134.37
2019-01-31T09:00:31.987Z,96137.36
2019-01-31T09:03:04.024Z,96140.40
2019-01-31T09:05:36.453Z,96147.61
2019-01-31T09:08:08.443Z,96149.13
2019-01-31T09:10:41.468Z,96153.23
2019-01-31T09:13:14.231Z,96152.89
2019-01-31T09:15:46.235Z,96158.86
2019-01-31T09:18:18.351Z,96152.53
2019-01-31T09:21:02.282Z,96156.56
2019-01-31T09:24:31.243Z,96154.47
2019-01-31T09:27:57.145Z,96167.87
2019-01-31T09:31:29.864Z,96172.95
2019-01-31T09:34:59.703Z,96179.61
2019-01-31T09:39:00.314Z,96180.55
2019-01-31T09:42:26.371Z,96196.68
2019-01-31T09:45:32.035Z,96200.48
2019-01-31T09:48:50.823Z,96197.94
2019-01-31T09:52:27.769Z,96202.30
2019-01-31T09:56:06.287Z,96192.87
2019-01-31T09:59:04.924Z,96194.94
2019-01-31T10:02:33.395Z,96196.58
2019-01-31T10:06:15.270Z,96194.97
2019-01-31T10:09:39.399Z,96195.72
2019-01-31T10:13:12.846Z,96183.81
2019-01-31T10:16:33.409Z,96178.16
2019-01-31T10:20:22.926Z,96175.27
2019-01-31T10:23:50.669Z,96175.28
2019-01-31T10:27:17.888Z,96174.56
2019-01-31T10:30:48.247Z,96171.82
2019-01-31T10:34:35.324Z,96161.89
2019-01-31T10:37:54.878Z,96159.61
2019-01-31T10:41:15.956Z,96162.50
2019-01-31T10:44:17.724Z,96146.10
2019-01-31T10:47:54.888Z,96139.50
2019-01-31T10:51:05.625Z,96132.66
2019-01-31T10:54:30.302Z,96124.88
2019-01-31T10:57:51.841Z,96123.78
2019-01-31T11:01:19.103Z,96112.97
2019-01-31T11:04:48.918Z,96111.91
2019-01-31T11:08:15.109Z,96105.41
2019-01-31T11:11:46.544Z,96105.31
2019-01-31T11:15:13.711Z,96104.23
2019-01-31T11:18:21.616Z,96113.72
2019-01-31T11:21:47.943Z,96112.88
2019-01-31T11:24:49.665Z,96111.47
2019-01-31T11:28:29.862Z,96100.77
2019-01-31T11:31:30.911Z,96092.31
2019-01-31T11:35:07.180Z,96085.41
2019-01-31T11:38:13.705Z,96078.77
2019-01-31T11:41:42.729Z,96073.20
2019-01-31T11:45:22.652Z,96071.49
2019-01-31T11:48:48.404Z,96074.67
2019-01-31T11:52:04.075Z,96075.72
2019-01-31T11:55:06.762Z,96073.00
2019-01-31T11:58:33.051Z,96075.84
2019-01-31T12:01:07.373Z,96066.98
2019-01-31T12:03:39.701Z,96063.30
2019-01-31T12:06:11.807Z,96042.75
2019-01-31T12:08:43.961Z,96034.76
2019-01-31T12:11:15.961Z,96044.23
2019-01-31T12:13:47.970Z,96034.94
2019-01-31T12:16:19.877Z,96036.49
2019-01-31T12:18:52.206Z,96030.77
2019-01-31T12:21:24.427Z,96026.73
2019-01-31T12:23:56.586Z,96028.30
2019-01-31T12:26:28.704Z,96021.91
2019-01-31T12:29:00.690Z,96019.16
2019-01-31T12:31:32.746Z,96014.40
2019-01-31T12:34:05.323Z,96025.66
2019-01-31T12:36:37.335Z,96027.33
2019-01-31T12:39:11.941Z,96016.59
2019-01-31T12:41:43.847Z,95997.62
2019-01-31T12:44:15.750Z,95982.55
2019-01-31T12:46:47.776Z,95989.01
2019-01-31T12:49:19.963Z,95990.27
2019-01-31T12:51:52.126Z,95983.78
2019-01-31T12:54:24.121Z,95991.95
2019-01-31T12:56:55.988Z,95985.24
2019-01-31T12:59:27.905Z,95977.37
2019-01-31T13:01:59.810Z,95987.64
2019-01-31T13:04:31.818Z,95991.47
2019-01-31T13:07:03.909Z,95997.20
2019-01-31T13:09:35.810Z,95995.79
2019-01-31T13:12:08.008Z,95989.97
2019-01-31T13:14:40.003Z,95988.70
2019-01-31T13:17:12.077Z,95990.11
2019-01-31T13:19:43.974Z,95992.79
2019-01-31T13:22:16.772Z,95985.31
2019-01-31T13:24:51.763Z,95987.31
2019-01-31T13:27:23.667Z,95987.86
2019-01-31T13:29:55.565Z,95988.08
2019-01-31T13:32:27.473Z,95983.12
2019-01-31T13:34:59.369Z,95978.75
2019-01-31T13:37:31.271Z,95976.58
2019-01-31T13:40:03.178Z,95979.38
2019-01-31T13:42:35.078Z,95978.59
2019-01-31T13:45:08.428Z,95978.09
2019-01-31T13:47:40.432Z,95976.77
2019-01-31T13:50:14.107Z,95972.98
2019-01-31T13:52:46.426Z,95976.41
2019-01-31T13:55:30.674Z,95977.03
2019-01-31T13:58:02.769Z,95973.45
2019-01-31T14:00:34.689Z,95974.52
2019-01-31T14:03:06.909Z,95971.14
2019-01-31T14:05:38.912Z,95975.00
2019-01-31T14:08:11.047Z,95985.69
2019-01-31T14:10:42.943Z,95977.92
2019-01-31T14:13:15.054Z,95975.69
2019-01-31T14:15:47.047Z,95978.34
2019-01-31T14:18:18.958Z,95974.48
2019-01-31T14:20:50.993Z,95973.48
2019-01-31T14:23:22.992Z,95965.22
2019-01-31T14:25:54.965Z,95973.09
2019-01-31T14:28:26.859Z,95976.87
2019-01-31T14:30:58.761Z,95986.80
2019-01-31T14:33:30.945Z,95980.44
2019-01-31T14:36:04.067Z,95987.48
2019-01-31T14:38:35.972Z,95989.70
2019-01-31T14:41:07.969Z,95986.09
2019-01-31T14:43:39.879Z,95985.38
2019-01-31T14:46:12.022Z,95986.13
2019-01-31T14:48:43.886Z,95991.85
2019-01-31T14:51:15.935Z,95983.27
2019-01-31T14:53:47.843Z,95986.45
2019-01-31T14:56:19.746Z,95988.62
2019-01-31T14:58:51.649Z,95990.24
2019-01-31T15:01:23.546Z,95993.92
2019-01-31T15:03:55.449Z,95985.97
2019-01-31T15:06:27.343Z,95987.40
2019-01-31T15:08:59.243Z,95982.95
2019-01-31T15:11:31.151Z,95989.89
2019-01-31T15:14:03.251Z,95987.72
2019-01-31T15:16:35.149Z,95985.89
2019-01-31T15:19:07.551Z,95983.58
2019-01-31T15:21:39.460Z,95987.75
2019-01-31T15:24:11.461Z,95985.49
2019-01-31T15:26:43.414Z,95977.67
2019-01-31T15:29:15.325Z,95977.88
2019-01-31T15:31:47.229Z,95974.89
2019-01-31T15:34:19.140Z,95969.25
2019-01-31T15:36:51.052Z,95973.34
2019-01-31T15:39:22.951Z,95966.50
2019-01-31T15:41:54.858Z,95973.77
2019-01-31T15:44:26.761Z,95970.08
2019-01-31T15:46:58.662Z,95979.06
2019-01-31T15:49:30.563Z,95983.79
2019-01-31T15:52:02.562Z,95987.76
2019-01-31T15:54:34.564Z,95992.83
2019-01-31T15:57:16.321Z,95991.71
2019-01-31T15:59:40.266Z,95986.55
2019-01-31T16:02:12.474Z,95993.75
2019-01-31T16:04:44.481Z,95989.75
2019-01-31T16:07:16.379Z,95993.43
2019-01-31T16:09:48.286Z,95991.12
2019-01-31T16:12:23.502Z,95992.63
2019-01-31T16:14:55.524Z,95997.97
2019-01-31T16:17:27.760Z,96002.62
2019-01-31T16:19:59.665Z,96004.70
2019-01-31T16:22:31.566Z,96007.09
2019-01-31T16:25:03.570Z,96010.94
2019-01-31T16:27:35.607Z,96015.48
2019-01-31T16:30:10.407Z,96012.43
2019-01-31T16:32:42.421Z,96008.00
2019-01-31T16:35:15.421Z,96007.73
2019-01-31T16:37:48.227Z,96008.62
2019-01-31T16:40:20.341Z,95995.01
2019-01-31T16:42:53.051Z,96000.77
2019-01-31T16:45:25.163Z,96003.09
2019-01-31T16:47:57.370Z,95997.34
2019-01-31T16:50:29.478Z,95995.23
2019-01-31T16:53:01.408Z,96000.81
2019-01-31T16:55:33.415Z,96003.09
2019-01-31T16:58:06.767Z,95999.17
2019-01-31T17:00:38.866Z,96001.42
2019-01-31T17:03:13.076Z,96008.05
2019-01-31T17:05:44.674Z,96010.56
2019-01-31T17:08:16.655Z,96012.08
2019-01-31T17:10:49.641Z,96013.75
2019-01-31T17:13:21.512Z,96011.79
2019-01-31T17:15:53.523Z,96009.15
2019-01-31T17:18:25.477Z,96004.66
2019-01-31T17:20:57.390Z,96009.40
2019-01-31T17:23:29.314Z,96004.41
2019-01-31T17:26:01.328Z,96002.90
2019-01-31T17:28:33.266Z,96003.52
2019-01-31T17:31:05.275Z,96000.45
2019-01-31T17:33:37.183Z,95996.22
2019-01-31T17:36:09.096Z,95993.34
2019-01-31T17:38:41.007Z,95991.73
2019-01-31T17:41:12.940Z,95990.01
2019-01-31T17:43:44.849Z,95987.97
2019-01-31T17:46:16.856Z,95984.70
2019-01-31T17:48:48.861Z,95988.50
2019-01-31T17:51:20.907Z,95985.54
2019-01-31T17:53:52.775Z,95986.72
2019-01-31T17:56:24.676Z,95985.78
2019-01-31T17:58:56.593Z,95982.31
2019-01-31T18:01:30.379Z,95982.76
2019-01-31T18:04:02.294Z,95983.23
2019-01-31T18:06:34.203Z,95984.41
2019-01-31T18:09:10.152Z,95977.48
2019-01-31T18:11:42.069Z,95974.63
2019-01-31T18:14:14.118Z,95968.60
2019-01-31T18:16:46.132Z,95964.73
2019-01-31T18:19:18.161Z,95958.33
2019-01-31T18:21:50.187Z,95961.70
2019-01-31T18:24:22.283Z,95962.27
2019-01-31T18:26:54.307Z,95961.75
2019-01-31T18:29:26.291Z,95964.52
2019-01-31T18:31:58.290Z,95964.33
2019-01-31T18:34:30.370Z,95963.03
2019-01-31T18:37:02.355Z,95962.55
2019-01-31T18:39:34.356Z,95965.87
2019-01-31T18:42:06.529Z,95961.08
2019-01-31T18:44:38.540Z,95961.87
2019-01-31T18:47:10.856Z,95962.25
2019-01-31T18:49:42.861Z,95960.77
2019-01-31T18:52:14.863Z,95963.38
2019-01-31T18:54:46.851Z,95961.89
2019-01-31T18:57:19.785Z,95954.27
2019-01-31T18:59:51.776Z,95954.83
2019-01-31T19:02:23.791Z,95960.66
2019-01-31T19:04:55.780Z,95961.31
2019-01-31T19:07:27.773Z,95951.95
2019-01-31T19:09:59.843Z,95949.22
2019-01-31T19:12:31.843Z,95947.52
2019-01-31T19:15:04.047Z,95954.28
2019-01-31T19:17:36.036Z,95943.30
2019-01-31T19:20:15.081Z,95934.73
2019-01-31T19:22:47.191Z,95938.84
2019-01-31T19:25:19.676Z,95938.45
2019-01-31T19:27:51.794Z,95935.55
2019-01-31T19:30:30.199Z,95932.80
2019-01-31T19:33:02.829Z,95932.45
2019-01-31T19:35:35.156Z,95924.89
2019-01-31T19:38:09.133Z,95926.02
2019-01-31T19:40:44.739Z,95923.73
2019-01-31T19:43:17.116Z,95913.81
2019-01-31T19:45:51.273Z,95919.52
2019-01-31T19:48:23.280Z,95905.62
2019-01-31T19:50:55.569Z,95900.84
2019-01-31T19:53:27.567Z,95899.13
2019-01-31T19:55:59.561Z,95898.09
2019-01-31T19:58:31.557Z,95892.80
2019-01-31T20:01:03.550Z,95895.64
2019-01-31T20:03:35.619Z,95887.47
2019-01-31T20:06:07.813Z,95882.91
2019-01-31T20:08:39.821Z,95882.33
2019-01-31T20:11:11.810Z,95885.00
2019-01-31T20:13:44.020Z,95884.08
2019-01-31T20:16:27.418Z,95880.09
2019-01-31T20:18:49.767Z,95877.11
2019-01-31T20:21:21.842Z,95881.98
2019-01-31T20:23:53.841Z,95878.80
2019-01-31T20:26:25.833Z,95876.71
2019-01-31T20:28:57.830Z,95873.55
2019-01-31T20:31:29.822Z,95871.99
2019-01-31T20:34:01.809Z,95873.84
2019-01-31T20:36:33.797Z,95874.89
2019-01-31T20:39:09.423Z,95874.23
2019-01-31T20:41:41.415Z,95875.10
2019-01-31T20:44:13.484Z,95870.66
2019-01-31T20:46:45.512Z,95871.63
2019-01-31T20:49:17.518Z,95871.08
2019-01-31T20:51:49.594Z,95870.48
2019-01-31T20:54:21.688Z,95875.91
2019-01-31T20:56:53.877Z,95870.77
2019-01-31T20:59:25.892Z,95870.91
2019-01-31T21:01:58.057Z,95868.59
2019-01-31T21:04:30.050Z,95864.29
2019-01-31T21:07:02.052Z,95853.80
2019-01-31T21:09:34.124Z,95845.67
2019-01-31T21:12:06.239Z,95845.45
2019-01-31T21:14:38.251Z,95846.39
2019-01-31T21:17:10.338Z,95842.62
2019-01-31T21:19:42.436Z,95839.45
2019-01-31T21:22:14.497Z,95827.70
2019-01-31T21:24:46.562Z,95824.98
2019-01-31T21:27:18.559Z,95822.86
2019-01-31T21:29:50.558Z,95823.28
2019-01-31T21:32:22.572Z,95817.19
2019-01-31T21:34:54.564Z,95813.40
2019-01-31T21:37:26.548Z,95812.19
2019-01-31T21:39:58.661Z,95805.95
2019-01-31T21:42:30.771Z,95800.69
2019-01-31T21:45:02.816Z,95797.78
2019-01-31T21:47:34.870Z,95798.30
2019-01-31T21:50:10.443Z,95796.67
2019-01-31T21:52:42.533Z,95786.27
2019-01-31T21:55:15.451Z,95783.67
2019-01-31T21:57:47.653Z,95787.23
2019-01-31T22:00:23.107Z,95784.67
2019-01-31T22:02:55.210Z,95782.16
2019-01-31T22:05:27.343Z,95768.86
2019-01-31T22:07:59.410Z,95763.23
2019-01-31T22:10:31.446Z,95767.23
2019-01-31T22:13:03.636Z,95766.02
2019-01-31T22:15:36.208Z,95761.80
2019-01-31T22:18:09.179Z,95754.38
2019-01-31T22:20:41.249Z,95752.12
2019-01-31T22:23:13.330Z,95750.33
2019-01-31T22:25:45.398Z,95751.60
2019-01-31T22:28:17.403Z,95750.64
2019-01-31T22:30:49.401Z,95746.91
2019-01-31T22:33:21.470Z,95748.96
2019-01-31T22:35:53.542Z,95744.02
2019-01-31T22:38:25.537Z,95751.07
2019-01-31T22:40:57.614Z,95750.71
2019-01-31T22:43:29.599Z,95756.19
2019-01-31T22:46:01.711Z,95757.33
2019-01-31T22:48:33.819Z,95744.39
2019-01-31T22:51:06.109Z,95737.81
2019-01-31T22:53:38.394Z,95732.13
2019-01-31T22:56:10.508Z,95724.13
2019-01-31T22:58:42.621Z,95719.39
2019-01-31T23:02:03.233Z,95725.00
2019-01-31T23:04:35.335Z,95719.00
2019-01-31T23:07:07.549Z,95713.52
2019-01-31T23:09:39.765Z,95708.48
2019-01-31T23:12:11.982Z,95703.00
2019-01-31T23:14:44.086Z,95706.52
2019-01-31T23:17:16.191Z,95698.57
2019-01-31T23:19:48.299Z,95701.41
2019-01-31T23:22:20.408Z,95694.14
2019-01-31T23:24:52.586Z,95683.86
2019-01-31T23:27:24.703Z,95683.27
2019-01-31T23:29:56.813Z,95684.03
2019-01-31T23:32:28.804Z,95679.58
2019-01-31T23:35:00.794Z,95675.45
2019-01-31T23:37:32.788Z,95670.36
2019-01-31T23:40:05.492Z,95665.45
2019-01-31T23:42:37.591Z,95663.87
2019-01-31T23:45:12.956Z,95661.30
2019-01-31T23:47:49.073Z,95662.48
2019-01-31T23:50:19.038Z,95661.33
2019-01-31T23:52:51.034Z,95666.58
2019-01-31T23:55:23.019Z,95661.32
2019-01-31T23:57:55.023Z,95661.80
